Saint James, Illinois
Current Conditions -  °F | °C
As of 8:35 PM on Sunday 21 Dec 2014 (Local Time) from KSLO Reporting Station
Clear Clear  
Wind Chill: 33°   Ceiling: Unl
Heat Index: 38°   Visibility: 10mi
Dew Point: 31°   Wind: 6mph
Humidity: 75%   Direction: 120°ESE
Pressure: 30.05"   Gusts: NA
Location:  38.9047°N, 88.8537°W
Report Text: KSLO 220235Z AUTO 12005KT 10SM CLR 03/M01 A3005 RMK AO2 T00321008
Loading
Personal Weather Stations






























Interactive Weather Map New forecast layout! Learn more

10-Day Weather Forecast

Advertisements
Track Severe Weather on mobile